Matvey Gorshkov

Gözlemci - Znamya Truda
3 Ara 2028
Pazar
İşlem

Kişilik

Uyum (6) Hırs (13) Tartışma (12) Sadakat (8) Baskı (1) Profesyonellik (6) Sportmenlik (16) Mizaç (9)

Profil

Antrenörlük Tarzı Demokratik
Lisans Kıtasal C
Kararlılık 4
İnsan Yönetimi 1
Motivasyon 3
Disiplin 6
İş Memnuniyeti
100%
Yorgunluk
0%
Görev Gözlemci
Maaş 10.9K h/h
Sözleşme 14.03.2029

Performans

Davranış İyi
Antrenman Etkinliği
25%
Oyuncu Gelişimi
30%
Sakatlık Önleme
15%
Taktik Uygulama
30%

Son Olaylar

Oyuncu izleme toplantısına katıldı şimdi
Bir oyuncu değerlendirdi şimdi
Bir oyuncu değerlendirdi şimdi
Bir oyuncu değerlendirdi şimdi
Bir oyuncu değerlendirdi şimdi
Bir maç izledi şimdi
Bir maç izledi şimdi
Bir maç izledi şimdi

Şu Anda İzliyor

195
Oyuncu Kulüp Durum Yetenek Güven İzlendi Son Gözlem Son Oy
Facundo Villarreal Los Andes Aktif 88 / 93 40% 3 02.12.2028 -
Elías Ayala Madryn Aktif 88 / 113 40% 6 01.12.2028 -
Alexey Belikov Krylya Sovetov Aktif 82 / 87 40% 1 01.12.2028 -
Owen Falconis Cerrito Aktif 94 / 97 40% 8 30.11.2028 -
Elías Ovelar General Diaz Aktif 91 / 90 40% 1 30.11.2028 -
Bruno Scorza La Luz Aktif 105 / 109 40% 2 29.11.2028 -
Leenhan Romero Iquique Aktif 86 / 79 40% 2 29.11.2028 -
Fernando Rodríguez Venialgo Daugavpils Aktif 96 / 83 40% 3 28.11.2028 -
Facundo Blasco San Telmo Aktif 91 / 93 40% 1 28.11.2028 -
Juan Peinipil Madryn Aktif 98 / 97 40% 4 27.11.2028 -
Juan Cruz Franzoni Gimnasia y Esgrima Aktif 119 / 97 40% 2 27.11.2028 -
Francisco Funes Los Andes Aktif 123 / 107 40% 2 27.11.2028 -
Milton Gerez Güemes Aktif 128 / 92 40% 2 27.11.2028 -
Jerónimo Porto Lapegüe San Telmo Aktif 89 / 122 40% 4 26.11.2028 -
Miguel Ceccotti Güemes Aktif 92 / 93 40% 5 25.11.2028 -
Ruslan Radyukevich Niva Aktif 70 / 84 40% 4 24.11.2028 -
Nadir Sánchez Central Córdoba SdE Aktif 116 / 101 40% 5 24.11.2028 -
Tobias Canale Almagro Aktif 101 / 79 40% 2 24.11.2028 -
Alexey Chernodarov Lida Aktif 90 / 78 40% 1 24.11.2028 -
Kirill Kovalevich Volna Pinsk Aktif 94 / 93 40% 4 23.11.2028 -
Mauro Schönfeld Morón Aktif 117 / 100 40% 4 23.11.2028 -
Fernando Duré Estudiantes Aktif 117 / 96 40% 3 21.11.2028 -
Gabriel Carrasco Los Andes Aktif 86 / 89 40% 1 21.11.2028 -
Tobías Salas Real Cartagena Aktif 102 / 90 40% 1 19.11.2028 -
Nahuel Albano La Luz Aktif 97 / 96 40% 5 17.11.2028 -
Wilman Moreira Irkutsk Aktif 82 / 72 40% 4 16.11.2028 -
Axel Pedrozo Almagro Aktif 98 / 96 40% 2 16.11.2028 -
Andrey Potapenko Dnepr Mogilev Aktif 71 / 75 40% 3 16.11.2028 -
Aldiiar Ältaev Baranovichi Aktif 75 / 94 40% 2 15.11.2028 -
Lucas Rodríguez Uruguay Montevideo Aktif 99 / 106 40% 1 15.11.2028 -
Nikita Golub Belshina Aktif 99 / 88 40% 2 14.11.2028 -
Juan Cruz Arno Maipú Aktif 98 / 106 40% 1 13.11.2028 -
Diego González San Luis Aktif 125 / 106 40% 4 12.11.2028 -
Julián Bragado Morón Aktif 106 / 84 40% 1 12.11.2028 -
Ignat Pranovich Minsk Aktif 103 / 93 40% 1 12.11.2028 -
Matías Núñez Atenas Aktif 107 / 107 40% 1 12.11.2028 -
Dmitriy Nizhnik Volna Pinsk Aktif 63 / 66 40% 1 11.11.2028 -
Diego Magallanes Defensores Aktif 119 / 103 40% 1 11.11.2028 -
Tiziano Cabrera Central Norte Aktif 110 / 93 40% 1 11.11.2028 -
Agustín Sosa Madryn Aktif 116 / 109 40% 1 10.11.2028 -
Timofey Tkachev Baranovichi Aktif 90 / 81 40% 1 09.11.2028 -
Egor Yuschenko Lida Aktif 69 / 84 40% 5 08.11.2028 -
Artem Rios Lokomotiv Gomel Aktif 82 / 73 40% 1 08.11.2028 -
Egor Petrov Slonim Aktif 63 / 67 40% 1 08.11.2028 -
Yaroslav Khramtsevich Uni-X Labs Aktif 89 / 91 40% 1 07.11.2028 -
Luca Duarte Arsenal Aktif 94 / 98 40% 1 07.11.2028 -
Nahuel Marzochi Colon Aktif 93 / 92 40% 1 06.11.2028 -
Emiliano Aires Rampla Juniors Aktif 107 / 85 40% 2 03.11.2028 -
Valentino Huertas Morón Aktif 84 / 112 40% 2 03.11.2028 -
Diego Méndez Tacuarembo Aktif 108 / 88 40% 4 01.11.2028 -
Marcos Echeverría Temperley Aktif 110 / 119 40% 1 31.10.2028 -
David Maguicha Atlanta Aktif 76 / 94 40% 4 30.10.2028 -
Artem Miroevskiy Bumprom Gomel Aktif 85 / 78 40% 1 30.10.2028 -
Pedro Sanz Central Norte Aktif 94 / 97 40% 1 30.10.2028 -
Jorge Sanguina Colón Aktif 91 / 99 40% 2 28.10.2028 -
Leandro Ruiz Volna Pinsk Aktif 65 / 76 40% 1 28.10.2028 -
Gonzalo Melgarejo Chaco For Ever Aktif 126 / 91 40% 1 28.10.2028 -
Facundo Sánchez Los Andes Aktif 87 / 106 40% 2 27.10.2028 -
Agustín Ojeda Chaco For Ever Aktif 93 / 113 40% 2 26.10.2028 -
Nikita Sokolovskiy Belshina Aktif 69 / 88 40% 1 26.10.2028 -
Tomás Benardoni Los Andes Aktif 86 / 88 40% 1 26.10.2028 -
Daniil Chergeyko Uni-X Labs Aktif 80 / 77 40% 2 24.10.2028 -
Ken Kait Sillamae Kalev Aktif 67 / 78 40% 1 24.10.2028 -
Gonzalo Flores Almirante Brown Aktif 110 / 110 40% 4 22.10.2028 -
Alejandro Leiva Patronato Aktif 108 / 107 40% 1 20.10.2028 -
Alexey Stroychuk Volna Pinsk Aktif 85 / 71 40% 1 19.10.2028 -
Mauro Peinipil Colón Aktif 112 / 118 40% 1 18.10.2028 -
Artem Zhevnerenko Bumprom Gomel Aktif 88 / 90 40% 1 18.10.2028 -
Nahuel Gómez Oriental Aktif 70 / 105 40% 1 18.10.2028 -
Gabriel Altamirano Almirante Brown Aktif 124 / 99 40% 1 17.10.2028 -
Juan Carabajal Central Norte Aktif 64 / 86 40% 1 17.10.2028 -
Tobías Correa Uruguay Montevideo Aktif 83 / 118 40% 1 16.10.2028 -
Facundo Taborda Racing Aktif 115 / 116 40% 1 15.10.2028 -
Matías Benítez San Miguel Aktif 97 / 99 40% 2 13.10.2028 -
Artem Zimin Osipovichi Aktif 93 / 93 40% 1 13.10.2028 -
Dylan Cabral Arsenal Aktif 121 / 104 40% 1 11.10.2028 -
Egor Mikhey Ostrovets Aktif 77 / 81 40% 1 10.10.2028 -
Enzo Gaggi Chaco For Ever Aktif 107 / 102 40% 2 09.10.2028 -
Gerónimo Tomasetti Temperley Aktif 103 / 120 40% 2 09.10.2028 -
Germán Cervera Alvarado Aktif 124 / 87 40% 2 09.10.2028 -
Semen Penchuk Baranovichi Aktif 93 / 81 40% 1 09.10.2028 -
Daniil Podbereznyi Niva Aktif 72 / 72 40% 1 08.10.2028 -
Tiago Taobas Central Norte Aktif 87 / 82 40% 2 05.10.2028 -
Tomás Díaz Grassano San Miguel Aktif 125 / 110 40% 1 05.10.2028 -
Facundo Rodríguez Talleres Aktif 73 / 91 40% 1 05.10.2028 -
Ariel Castellano Alvarado Aktif 122 / 97 40% 1 03.10.2028 -
Wladimir Cid San Marcos de Arica Aktif 80 / 88 40% 1 04.09.2028 -
Ilya Tishurov Osipovichi Aktif 65 / 79 40% 1 23.08.2028 -
Agustín Zabaleta Chaco For Ever Aktif 70 / 93 40% 1 16.08.2028 -
Luciano Arnijas Maipú Aktif 132 / 125 40% 1 15.08.2028 -
Zico Asare Harrogate Town Aktif 88 / 92 40% 1 31.07.2028 -
Santino Sciacqua Colón Aktif 88 / 113 40% 1 24.07.2028 -
Vladislav Agalakov Metallurg Aktif 83 / 75 40% 1 10.07.2028 -
Evgeny Kovalevskiy Strogino Aktif 79 / 90 40% 3 06.07.2028 -
Lautaro Díaz San Martín Aktif 66 / 96 40% 1 03.07.2028 -
Yegor Ponomarev Tver Aktif 96 / 87 40% 4 30.06.2028 -
Nikita Pogrebnev Ryazan Aktif 95 / 77 40% 1 20.06.2028 -
Ville Nilsson Metallurg Aktif 89 / 78 40% 6 16.06.2028 -
Maxim Sergeev Spartak Tambov Aktif 94 / 85 40% 7 13.06.2028 -
Aziz Gaziev Dinamo St Petersburg Aktif 88 / 88 40% 2 13.06.2028 -
Ilja Rubtsov Chaika Aktif 82 / 87 40% 2 13.06.2028 -
Wojciech Szafranek Zenit Penza Aktif 71 / 87 40% 6 10.06.2028 -
Artur Kozyrev Volna Kaybedildi 79 / 95 40% 2 10.06.2028 -
Yaroslav Dol Nart Aktif 86 / 69 40% 4 09.06.2028 -
Tiago Schiulaz Chertanovo Aktif 90 / 80 40% 1 09.06.2028 -
Alexandr Goryachkin Strogino Aktif 89 / 69 40% 1 09.06.2028 -
Arseny Vainer Nosta Reddedildi 96 / 73 40% 2 08.06.2028 -
Alexandr Shlenkin Dinamo Bryansk Aktif 94 / 65 40% 2 08.06.2028 -
Anton Betyuzhnov Dinamo Vologda Aktif 97 / 82 40% 4 06.06.2028 -
Vladimir Uljanovskiy Chelyabinsk Aktif 95 / 85 40% 2 06.06.2028 -
Yegor Teterlev Dinamo Bryansk Aktif 89 / 89 40% 1 06.06.2028 -
Michalis Patiras Khimik Aktif 100 / 86 40% 1 06.06.2028 -
Mads Abrahamsen Zenit Penza Aktif 74 / 89 40% 2 05.06.2028 -
Vladislav Bragin SKA Khabarovsk Aktif 73 / 85 40% 3 04.06.2028 -
Bekkhan Aliev Sevastopol Aktif 63 / 71 40% 1 04.06.2028 -
Daniil Arsentjev Orel Aktif 86 / 83 40% 3 03.06.2028 -
Maxim Levin Spartak Tambov Aktif 78 / 81 40% 3 03.06.2028 -
Jeremías Unzurrunzaga Zvezda Aktif 78 / 75 40% 2 02.06.2028 -
Artem Stepanovich Sevastopol Aktif 92 / 84 40% 3 02.06.2028 -
Fabrizio Fazzolari Legion Aktif 67 / 81 40% 1 02.06.2028 -
Mevran Ablak Angusht Aktif 68 / 83 40% 4 01.06.2028 -
Dmitry Savin Metallurg Aktif 65 / 80 40% 2 01.06.2028 -
Ilja Gruznov Khimik Aktif 92 / 81 40% 3 31.05.2028 -
Vladislav Yanchenko Dinamo Vologda Aktif 74 / 62 40% 2 31.05.2028 -
Artem Ntumba Rubin Yalta Aktif 75 / 72 40% 2 31.05.2028 -
Daniil Konoplev Dinamo Bryansk Aktif 89 / 92 40% 2 30.05.2028 -
Sergey Gaiduk Salyut Aktif 77 / 84 40% 3 29.05.2028 -
Amir Djumaev Nart Aktif 83 / 89 40% 1 29.05.2028 -
Alexandr Kanischev Salyut Aktif 69 / 77 40% 2 27.05.2028 -
Arseny Lavrentjev Naxxar Lions Aktif 75 / 78 40% 1 27.05.2028 -
Timur Kim Arsenal Tula Aktif 49 / 54 40% 3 26.05.2028 -
Soslan Lysenko Spartak Nalchik Aktif 91 / 81 40% 7 25.05.2028 -
Sam Hart Port Vale Aktif 98 / 78 40% 1 22.05.2028 -
Danil Khromov Dinamo Stavropol Aktif 66 / 66 40% 1 20.05.2028 -
Mikhail Gainov Dinamo Stavropol Aktif 71 / 82 40% 4 18.05.2028 -
Magomed Nasibov Pobeda Aktif 71 / 90 40% 5 17.05.2028 -
Ivan Kudryashov Astrakhan Aktif 78 / 85 40% 3 17.05.2028 -
Etsgar Cruz Ruch Aktif 86 / 92 40% 1 17.05.2028 -
Artem Teterkin Saturn Aktif 87 / 77 40% 1 16.05.2028 -
Nikita Kireev Dinamo Vologda Aktif 86 / 81 40% 4 15.05.2028 -
Danila Sukhomlinov Neftekhimik Aktif 92 / 98 40% 2 13.05.2028 -
Artem Selyukov Chertanovo Aktif 72 / 83 40% 2 12.05.2028 -
Vyacheslav Gordienko Orel Aktif 60 / 78 40% 1 11.05.2028 -
Yaroslav Volkov Kosmos Aktif 87 / 75 40% 1 11.05.2028 -
Kofi Duffour Cherepovets Aktif 93 / 79 40% 2 10.05.2028 -
Gevork Sarkisyan Saturn Aktif 73 / 79 40% 4 06.05.2028 -
Sergey Gribov Dinamo Bryansk Aktif 92 / 93 40% 2 06.05.2028 -
Yegor Pankov Luki-Energiya Aktif 75 / 77 40% 2 05.05.2028 -
Timur Chetoev Kvant Aktif 49 / 59 40% 2 04.05.2028 -
Maxim Mishutin Ryazan Aktif 83 / 87 40% 1 04.05.2028 -
Nicolae Sula Kvant Aktif 89 / 81 40% 3 02.05.2028 -
Sergey Guzyuk Strogino Aktif 64 / 62 40% 3 01.05.2028 -
Georgy Makarov Dinamo St Petersburg Aktif 67 / 96 40% 2 28.04.2028 -
Danil Kazantsev Zenit Penza Aktif 93 / 82 40% 1 28.04.2028 -
Ilja Antsiferov Angusht Aktif 86 / 61 40% 3 27.04.2028 -
Alexandr Novikov Dinamo Bryansk Aktif 73 / 84 40% 1 24.04.2028 -
Danila Yezhkov Dinamo Vologda Aktif 99 / 83 40% 2 22.04.2028 -
Ayanda Vete Strogino Aktif 86 / 91 40% 1 22.04.2028 -
Nikita Rozhkov Saturn Aktif 71 / 72 40% 2 20.04.2028 -
Rashid Salimov Pobeda Aktif 65 / 74 40% 1 15.04.2028 -
Gabriel Leiva Dinamo St Petersburg Aktif 85 / 74 40% 1 15.04.2028 -
Maxim Dmitriev Tyumen Aktif 78 / 92 40% 2 14.04.2028 -
Arseny Popushoy Baltika Aktif 91 / 88 40% 1 13.04.2028 -
Dmitry Dolgov Dinamo Vologda Aktif 72 / 85 40% 2 09.04.2028 -
Dmitry Usov Textilschik Aktif 71 / 87 40% 1 08.04.2028 -
Danil Polyakh Rubin Yalta Aktif 80 / 90 40% 1 07.04.2028 -
Ilja Mamkin Luki-Energiya Aktif 74 / 69 40% 1 07.04.2028 -
Luca Ruffini Giana Erminio Aktif 72 / 81 40% 1 06.04.2028 -
Oleksandr Masalov Dinamo St Petersburg Aktif 89 / 78 40% 1 05.04.2028 -
Nikolay Genchu Saturn Aktif 67 / 81 40% 1 05.04.2028 -
Vladislav Zykh SKA Khabarovsk Aktif 58 / 76 40% 1 03.04.2028 -
Dmitry Shopin Spartak Moscow Aktif 83 / 82 40% 1 01.04.2028 -
Igor Shestakov Luki-Energiya Aktif 62 / 69 40% 1 01.04.2028 -
Andrey Ivanteev Salyut Aktif 94 / 89 40% 1 26.03.2028 -
Maga Tver Aktif 86 / 74 40% 1 26.03.2028 -
Islam-Bek Gubzhokov Nosta Aktif 69 / 68 40% 1 25.03.2028 -
Baltazar Frías Marinoff Zenit Penza Aktif 75 / 81 40% 2 24.03.2028 -
Konstantin Simakov Torpedo Vladimir Aktif 69 / 75 40% 1 22.03.2028 -
Inal Dudaev Kolomna Aktif 52 / 74 40% 1 22.03.2028 -
Rasul Zhangurazov Astrakhan Aktif 83 / 71 40% 1 22.03.2028 -
Ivan Polyakov Chertanovo Aktif 67 / 82 40% 1 20.03.2028 -
Vsevolod Bykov Dinamo Vologda Aktif 74 / 77 40% 1 18.03.2028 -
Alexandr Komissarov Torpedo Vladimir Aktif 59 / 69 40% 2 15.03.2028 -
Magomed Ibragimov Legion Aktif 82 / 70 40% 1 15.03.2028 -
Rohan Vaughan Zenit Penza Aktif 55 / 62 40% 1 12.03.2028 -
Mikhail Maiboroda Luki-Energiya Aktif 69 / 74 40% 1 11.03.2028 -
Valery Arkhipenko Torpedo Vladimir Aktif 54 / 63 40% 1 11.03.2028 -
Gadji Budunov Angusht Aktif 66 / 84 40% 1 06.03.2028 -
Alexandr Mironov Spartak Tambov Aktif 51 / 62 37% 1 07.09.2026 -
Kirill Tsepenkov Dnepr Mogilev Aktif 103 / 102 40% 1 10.08.2026 -
Grenik Petrosyan Torpedo-BelAZ Aktif 102 / 99 40% 1 10.08.2026 -
Yaroslav Makushinskiy Bumprom Gomel Aktif 87 / 75 40% 1 03.08.2026 -
Timur Pukhov Baranovichi Aktif 93 / 99 40% 1 03.08.2026 -
Amine Benchaib Kauno Zalgiris Aktif 102 / 107 40% 1 01.08.2026 -
Lirim Kastrati Kauno Zalgiris Aktif 111 / 97 40% 1 01.08.2026 -